sensor_id;sensor_type;location;lat;lon;timestamp;P1;durP1;ratioP1;P2;durP2;ratioP2
72904;SDS011;61048;52.162;4.516;2023-06-14T00:00:15;3.58;;;1.17;;
72904;SDS011;61048;52.162;4.516;2023-06-14T00:02:42;3.80;;;1.10;;
72904;SDS011;61048;52.162;4.516;2023-06-14T00:05:09;2.90;;;1.00;;
72904;SDS011;61048;52.162;4.516;2023-06-14T00:07:38;4.00;;;1.23;;
72904;SDS011;61048;52.162;4.516;2023-06-14T00:10:09;2.83;;;1.20;;
72904;SDS011;61048;52.162;4.516;2023-06-14T00:12:37;4.22;;;1.33;;
72904;SDS011;61048;52.162;4.516;2023-06-14T00:15:05;3.75;;;1.60;;
72904;SDS011;61048;52.162;4.516;2023-06-14T00:17:34;3.53;;;1.20;;
72904;SDS011;61048;52.162;4.516;2023-06-14T00:20:01;3.25;;;1.20;;
72904;SDS011;61048;52.162;4.516;2023-06-14T00:22:30;3.90;;;1.30;;
72904;SDS011;61048;52.162;4.516;2023-06-14T00:24:57;3.35;;;1.23;;
72904;SDS011;61048;52.162;4.516;2023-06-14T00:27:26;2.20;;;1.13;;
72904;SDS011;61048;52.162;4.516;2023-06-14T00:29:53;2.47;;;1.10;;
72904;SDS011;61048;52.162;4.516;2023-06-14T00:32:19;5.70;;;1.30;;
72904;SDS011;61048;52.162;4.516;2023-06-14T00:34:50;2.38;;;1.30;;
72904;SDS011;61048;52.162;4.516;2023-06-14T00:37:17;3.72;;;1.35;;
72904;SDS011;61048;52.162;4.516;2023-06-14T00:39:44;2.88;;;1.13;;
72904;SDS011;61048;52.162;4.516;2023-06-14T00:42:11;3.78;;;1.13;;
72904;SDS011;61048;52.162;4.516;2023-06-14T00:44:50;5.90;;;1.27;;
72904;SDS011;61048;52.162;4.516;2023-06-14T00:47:17;3.53;;;1.30;;
72904;SDS011;61048;52.162;4.516;2023-06-14T00:49:44;6.07;;;1.30;;
72904;SDS011;61048;52.162;4.516;2023-06-14T00:52:12;2.22;;;1.23;;
72904;SDS011;61048;52.162;4.516;2023-06-14T00:54:40;3.15;;;1.33;;
72904;SDS011;61048;52.162;4.516;2023-06-14T00:57:07;3.72;;;2.05;;
72904;SDS011;61048;52.162;4.516;2023-06-14T00:59:36;4.60;;;1.80;;
72904;SDS011;61048;52.162;4.516;2023-06-14T01:02:09;2.72;;;1.23;;
72904;SDS011;61048;52.162;4.516;2023-06-14T01:04:36;3.33;;;1.25;;
72904;SDS011;61048;52.162;4.516;2023-06-14T01:07:07;2.63;;;1.27;;
72904;SDS011;61048;52.162;4.516;2023-06-14T01:09:45;5.10;;;1.20;;
72904;SDS011;61048;52.162;4.516;2023-06-14T01:12:15;2.63;;;1.17;;
72904;SDS011;61048;52.162;4.516;2023-06-14T01:14:57;3.55;;;1.02;;
72904;SDS011;61048;52.162;4.516;2023-06-14T01:17:27;4.10;;;1.08;;
72904;SDS011;61048;52.162;4.516;2023-06-14T01:19:57;4.45;;;1.25;;
72904;SDS011;61048;52.162;4.516;2023-06-14T01:22:25;3.17;;;1.17;;
72904;SDS011;61048;52.162;4.516;2023-06-14T01:24:54;3.75;;;1.58;;
72904;SDS011;61048;52.162;4.516;2023-06-14T01:27:22;4.10;;;1.20;;
72904;SDS011;61048;52.162;4.516;2023-06-14T01:29:53;5.72;;;1.63;;
72904;SDS011;61048;52.162;4.516;2023-06-14T01:32:21;4.75;;;1.63;;
72904;SDS011;61048;52.162;4.516;2023-06-14T01:34:50;3.45;;;1.42;;
72904;SDS011;61048;52.162;4.516;2023-06-14T01:37:17;5.70;;;1.30;;
72904;SDS011;61048;52.162;4.516;2023-06-14T01:39:45;3.05;;;1.40;;
72904;SDS011;61048;52.162;4.516;2023-06-14T01:42:15;3.63;;;1.20;;
72904;SDS011;61048;52.162;4.516;2023-06-14T01:44:43;2.45;;;1.15;;
72904;SDS011;61048;52.162;4.516;2023-06-14T01:47:11;2.92;;;1.17;;
72904;SDS011;61048;52.162;4.516;2023-06-14T01:49:38;2.53;;;1.08;;
72904;SDS011;61048;52.162;4.516;2023-06-14T01:52:06;2.70;;;0.90;;
72904;SDS011;61048;52.162;4.516;2023-06-14T01:54:34;2.92;;;1.10;;
72904;SDS011;61048;52.162;4.516;2023-06-14T01:57:07;3.38;;;1.13;;
72904;SDS011;61048;52.162;4.516;2023-06-14T01:59:35;3.92;;;1.00;;
72904;SDS011;61048;52.162;4.516;2023-06-14T02:02:04;2.60;;;1.13;;
72904;SDS011;61048;52.162;4.516;2023-06-14T02:04:31;3.85;;;1.27;;
72904;SDS011;61048;52.162;4.516;2023-06-14T02:06:58;4.38;;;1.10;;
72904;SDS011;61048;52.162;4.516;2023-06-14T02:09:25;4.05;;;1.20;;
72904;SDS011;61048;52.162;4.516;2023-06-14T02:11:52;3.38;;;1.10;;
72904;SDS011;61048;52.162;4.516;2023-06-14T02:14:19;3.63;;;1.52;;
72904;SDS011;61048;52.162;4.516;2023-06-14T02:16:47;9.15;;;1.42;;
72904;SDS011;61048;52.162;4.516;2023-06-14T02:19:15;3.38;;;1.58;;
72904;SDS011;61048;52.162;4.516;2023-06-14T02:21:42;3.85;;;1.30;;
72904;SDS011;61048;52.162;4.516;2023-06-14T02:24:09;2.60;;;1.20;;
72904;SDS011;61048;52.162;4.516;2023-06-14T02:26:36;5.47;;;1.10;;
72904;SDS011;61048;52.162;4.516;2023-06-14T02:29:03;3.05;;;1.02;;
72904;SDS011;61048;52.162;4.516;2023-06-14T02:31:30;2.58;;;1.10;;
72904;SDS011;61048;52.162;4.516;2023-06-14T02:33:59;3.60;;;1.13;;
72904;SDS011;61048;52.162;4.516;2023-06-14T02:36:26;3.08;;;1.08;;
72904;SDS011;61048;52.162;4.516;2023-06-14T02:38:54;3.30;;;1.30;;
72904;SDS011;61048;52.162;4.516;2023-06-14T02:41:22;3.72;;;1.10;;
72904;SDS011;61048;52.162;4.516;2023-06-14T02:43:49;2.20;;;1.10;;
72904;SDS011;61048;52.162;4.516;2023-06-14T02:46:16;2.85;;;1.20;;
72904;SDS011;61048;52.162;4.516;2023-06-14T02:48:43;3.38;;;0.88;;
72904;SDS011;61048;52.162;4.516;2023-06-14T02:51:11;3.88;;;1.75;;
72904;SDS011;61048;52.162;4.516;2023-06-14T02:53:38;2.50;;;1.05;;
72904;SDS011;61048;52.162;4.516;2023-06-14T02:56:05;3.40;;;1.17;;
72904;SDS011;61048;52.162;4.516;2023-06-14T02:58:32;3.15;;;1.20;;
72904;SDS011;61048;52.162;4.516;2023-06-14T03:00:59;2.97;;;0.93;;
72904;SDS011;61048;52.162;4.516;2023-06-14T03:03:28;3.88;;;1.10;;
72904;SDS011;61048;52.162;4.516;2023-06-14T03:05:55;3.15;;;1.17;;
72904;SDS011;61048;52.162;4.516;2023-06-14T03:08:23;3.15;;;1.02;;
72904;SDS011;61048;52.162;4.516;2023-06-14T03:10:52;2.92;;;1.02;;
72904;SDS011;61048;52.162;4.516;2023-06-14T03:13:21;4.47;;;1.20;;
72904;SDS011;61048;52.162;4.516;2023-06-14T03:15:48;4.75;;;1.10;;
72904;SDS011;61048;52.162;4.516;2023-06-14T03:18:15;2.78;;;0.98;;
72904;SDS011;61048;52.162;4.516;2023-06-14T03:20:43;2.72;;;1.20;;
72904;SDS011;61048;52.162;4.516;2023-06-14T03:23:10;3.78;;;0.88;;
72904;SDS011;61048;52.162;4.516;2023-06-14T03:25:39;2.20;;;0.95;;
72904;SDS011;61048;52.162;4.516;2023-06-14T03:28:07;5.63;;;1.20;;
72904;SDS011;61048;52.162;4.516;2023-06-14T03:30:34;4.47;;;1.15;;
72904;SDS011;61048;52.162;4.516;2023-06-14T03:33:01;4.03;;;0.90;;
72904;SDS011;61048;52.162;4.516;2023-06-14T03:35:28;4.20;;;1.25;;
72904;SDS011;61048;52.162;4.516;2023-06-14T03:37:55;21.10;;;1.60;;
72904;SDS011;61048;52.162;4.516;2023-06-14T03:40:22;2.20;;;1.08;;
72904;SDS011;61048;52.162;4.516;2023-06-14T03:42:53;3.10;;;1.30;;
72904;SDS011;61048;52.162;4.516;2023-06-14T03:45:20;2.70;;;1.00;;
72904;SDS011;61048;52.162;4.516;2023-06-14T03:47:47;2.55;;;1.10;;
72904;SDS011;61048;52.162;4.516;2023-06-14T03:50:15;4.75;;;1.20;;
72904;SDS011;61048;52.162;4.516;2023-06-14T03:52:43;3.05;;;1.05;;
72904;SDS011;61048;52.162;4.516;2023-06-14T03:55:10;3.97;;;1.20;;
72904;SDS011;61048;52.162;4.516;2023-06-14T03:57:38;4.50;;;1.02;;
72904;SDS011;61048;52.162;4.516;2023-06-14T04:00:07;6.75;;;2.75;;
72904;SDS011;61048;52.162;4.516;2023-06-14T04:02:36;3.22;;;1.20;;
72904;SDS011;61048;52.162;4.516;2023-06-14T04:05:03;4.45;;;1.20;;
72904;SDS011;61048;52.162;4.516;2023-06-14T04:07:33;4.07;;;1.17;;
72904;SDS011;61048;52.162;4.516;2023-06-14T04:12:32;2.47;;;1.10;;
72904;SDS011;61048;52.162;4.516;2023-06-14T04:14:59;3.45;;;0.90;;
72904;SDS011;61048;52.162;4.516;2023-06-14T04:17:27;3.58;;;1.08;;
72904;SDS011;61048;52.162;4.516;2023-06-14T04:19:54;3.45;;;1.20;;
72904;SDS011;61048;52.162;4.516;2023-06-14T04:22:23;4.05;;;1.13;;
72904;SDS011;61048;52.162;4.516;2023-06-14T04:24:53;2.63;;;0.80;;
72904;SDS011;61048;52.162;4.516;2023-06-14T04:27:21;2.88;;;1.60;;
72904;SDS011;61048;52.162;4.516;2023-06-14T04:29:50;4.43;;;0.90;;
72904;SDS011;61048;52.162;4.516;2023-06-14T04:32:22;3.55;;;0.93;;
72904;SDS011;61048;52.162;4.516;2023-06-14T04:34:52;2.15;;;1.02;;
72904;SDS011;61048;52.162;4.516;2023-06-14T04:37:19;2.60;;;0.80;;
72904;SDS011;61048;52.162;4.516;2023-06-14T04:39:47;4.55;;;1.48;;
72904;SDS011;61048;52.162;4.516;2023-06-14T04:42:14;5.47;;;0.95;;
72904;SDS011;61048;52.162;4.516;2023-06-14T04:44:41;4.20;;;1.33;;
72904;SDS011;61048;52.162;4.516;2023-06-14T04:47:08;4.63;;;0.98;;
72904;SDS011;61048;52.162;4.516;2023-06-14T04:49:36;4.05;;;1.15;;
72904;SDS011;61048;52.162;4.516;2023-06-14T04:52:05;3.13;;;1.15;;
72904;SDS011;61048;52.162;4.516;2023-06-14T04:54:32;4.88;;;1.20;;
72904;SDS011;61048;52.162;4.516;2023-06-14T04:57:02;13.73;;;2.80;;
72904;SDS011;61048;52.162;4.516;2023-06-14T04:59:30;18.08;;;3.83;;
72904;SDS011;61048;52.162;4.516;2023-06-14T05:01:58;11.93;;;3.83;;
72904;SDS011;61048;52.162;4.516;2023-06-14T05:04:25;15.75;;;4.20;;
72904;SDS011;61048;52.162;4.516;2023-06-14T05:06:53;11.52;;;3.42;;
72904;SDS011;61048;52.162;4.516;2023-06-14T05:09:21;17.02;;;3.30;;
72904;SDS011;61048;52.162;4.516;2023-06-14T05:11:48;11.18;;;2.88;;
72904;SDS011;61048;52.162;4.516;2023-06-14T05:14:15;6.88;;;2.22;;
72904;SDS011;61048;52.162;4.516;2023-06-14T05:16:42;10.05;;;3.05;;
72904;SDS011;61048;52.162;4.516;2023-06-14T05:19:09;10.38;;;2.95;;
72904;SDS011;61048;52.162;4.516;2023-06-14T05:21:36;12.02;;;2.55;;
72904;SDS011;61048;52.162;4.516;2023-06-14T05:24:04;8.32;;;2.35;;
72904;SDS011;61048;52.162;4.516;2023-06-14T05:26:32;8.40;;;1.95;;
72904;SDS011;61048;52.162;4.516;2023-06-14T05:29:00;4.80;;;1.83;;
72904;SDS011;61048;52.162;4.516;2023-06-14T05:31:27;5.93;;;1.88;;
72904;SDS011;61048;52.162;4.516;2023-06-14T05:33:54;8.00;;;1.75;;
72904;SDS011;61048;52.162;4.516;2023-06-14T05:36:21;5.85;;;1.52;;
72904;SDS011;61048;52.162;4.516;2023-06-14T05:38:48;8.88;;;1.80;;
72904;SDS011;61048;52.162;4.516;2023-06-14T05:41:16;10.57;;;1.90;;
72904;SDS011;61048;52.162;4.516;2023-06-14T05:43:44;5.13;;;1.30;;
72904;SDS011;61048;52.162;4.516;2023-06-14T05:46:11;5.25;;;1.52;;
72904;SDS011;61048;52.162;4.516;2023-06-14T05:48:38;8.10;;;1.38;;
72904;SDS011;61048;52.162;4.516;2023-06-14T05:51:04;4.18;;;1.23;;
72904;SDS011;61048;52.162;4.516;2023-06-14T05:53:34;7.63;;;1.40;;
72904;SDS011;61048;52.162;4.516;2023-06-14T05:56:01;7.45;;;1.30;;
72904;SDS011;61048;52.162;4.516;2023-06-14T05:58:28;4.80;;;1.20;;
72904;SDS011;61048;52.162;4.516;2023-06-14T06:00:56;4.68;;;1.45;;
72904;SDS011;61048;52.162;4.516;2023-06-14T06:03:23;7.50;;;1.20;;
72904;SDS011;61048;52.162;4.516;2023-06-14T06:05:50;5.13;;;1.13;;
72904;SDS011;61048;52.162;4.516;2023-06-14T06:08:17;6.88;;;1.05;;
72904;SDS011;61048;52.162;4.516;2023-06-14T06:10:43;6.18;;;1.20;;
72904;SDS011;61048;52.162;4.516;2023-06-14T06:13:10;3.90;;;1.13;;
72904;SDS011;61048;52.162;4.516;2023-06-14T06:15:37;2.88;;;1.40;;
72904;SDS011;61048;52.162;4.516;2023-06-14T06:18:06;2.85;;;0.77;;
72904;SDS011;61048;52.162;4.516;2023-06-14T06:20:32;7.78;;;1.42;;
72904;SDS011;61048;52.162;4.516;2023-06-14T06:23:01;4.45;;;1.25;;
72904;SDS011;61048;52.162;4.516;2023-06-14T06:25:28;3.80;;;1.05;;
72904;SDS011;61048;52.162;4.516;2023-06-14T06:27:56;4.63;;;1.52;;
72904;SDS011;61048;52.162;4.516;2023-06-14T06:30:24;1.88;;;0.80;;
72904;SDS011;61048;52.162;4.516;2023-06-14T06:32:51;3.10;;;1.05;;
72904;SDS011;61048;52.162;4.516;2023-06-14T06:35:19;2.42;;;1.13;;
72904;SDS011;61048;52.162;4.516;2023-06-14T06:37:46;2.88;;;1.02;;
72904;SDS011;61048;52.162;4.516;2023-06-14T06:40:13;2.70;;;1.20;;
72904;SDS011;61048;52.162;4.516;2023-06-14T06:42:40;3.60;;;1.02;;
72904;SDS011;61048;52.162;4.516;2023-06-14T06:45:07;6.50;;;1.50;;
72904;SDS011;61048;52.162;4.516;2023-06-14T06:47:34;5.43;;;1.30;;
72904;SDS011;61048;52.162;4.516;2023-06-14T06:50:01;2.90;;;1.25;;
72904;SDS011;61048;52.162;4.516;2023-06-14T06:52:30;2.80;;;1.20;;
72904;SDS011;61048;52.162;4.516;2023-06-14T06:54:56;5.63;;;1.20;;
72904;SDS011;61048;52.162;4.516;2023-06-14T06:57:23;4.68;;;1.30;;
72904;SDS011;61048;52.162;4.516;2023-06-14T06:59:50;3.25;;;1.45;;
72904;SDS011;61048;52.162;4.516;2023-06-14T07:02:17;3.22;;;1.00;;
72904;SDS011;61048;52.162;4.516;2023-06-14T07:04:44;4.13;;;1.00;;
72904;SDS011;61048;52.162;4.516;2023-06-14T07:07:11;2.28;;;0.90;;
72904;SDS011;61048;52.162;4.516;2023-06-14T07:09:39;1.95;;;1.00;;
72904;SDS011;61048;52.162;4.516;2023-06-14T07:12:07;2.67;;;1.05;;
72904;SDS011;61048;52.162;4.516;2023-06-14T07:14:34;3.03;;;1.00;;
72904;SDS011;61048;52.162;4.516;2023-06-14T07:17:01;1.75;;;0.63;;
72904;SDS011;61048;52.162;4.516;2023-06-14T07:19:27;5.72;;;1.67;;
72904;SDS011;61048;52.162;4.516;2023-06-14T07:21:55;6.40;;;1.00;;
72904;SDS011;61048;52.162;4.516;2023-06-14T07:24:23;2.78;;;1.38;;
72904;SDS011;61048;52.162;4.516;2023-06-14T07:26:51;5.82;;;1.00;;
72904;SDS011;61048;52.162;4.516;2023-06-14T07:29:18;4.10;;;1.50;;
72904;SDS011;61048;52.162;4.516;2023-06-14T07:31:45;5.47;;;1.20;;
72904;SDS011;61048;52.162;4.516;2023-06-14T07:34:12;3.65;;;1.30;;
72904;SDS011;61048;52.162;4.516;2023-06-14T07:36:39;4.15;;;1.27;;
72904;SDS011;61048;52.162;4.516;2023-06-14T07:39:09;4.68;;;1.00;;
72904;SDS011;61048;52.162;4.516;2023-06-14T07:41:36;4.95;;;1.20;;
72904;SDS011;61048;52.162;4.516;2023-06-14T07:44:04;6.30;;;1.63;;
72904;SDS011;61048;52.162;4.516;2023-06-14T07:46:31;2.80;;;0.90;;
72904;SDS011;61048;52.162;4.516;2023-06-14T07:48:59;4.22;;;1.13;;
72904;SDS011;61048;52.162;4.516;2023-06-14T07:51:26;2.42;;;1.10;;
72904;SDS011;61048;52.162;4.516;2023-06-14T07:53:53;4.53;;;1.10;;
72904;SDS011;61048;52.162;4.516;2023-06-14T07:56:20;3.33;;;0.90;;
72904;SDS011;61048;52.162;4.516;2023-06-14T07:58:48;2.88;;;1.20;;
72904;SDS011;61048;52.162;4.516;2023-06-14T08:01:16;2.58;;;1.00;;
72904;SDS011;61048;52.162;4.516;2023-06-14T08:03:45;5.32;;;1.35;;
72904;SDS011;61048;52.162;4.516;2023-06-14T08:06:11;2.85;;;1.05;;
72904;SDS011;61048;52.162;4.516;2023-06-14T08:08:38;4.35;;;1.15;;
72904;SDS011;61048;52.162;4.516;2023-06-14T08:11:05;3.70;;;1.25;;
72904;SDS011;61048;52.162;4.516;2023-06-14T08:13:32;2.60;;;1.23;;
72904;SDS011;61048;52.162;4.516;2023-06-14T08:15:59;3.17;;;1.13;;
72904;SDS011;61048;52.162;4.516;2023-06-14T08:18:27;2.55;;;1.13;;
72904;SDS011;61048;52.162;4.516;2023-06-14T08:20:55;3.50;;;1.23;;
72904;SDS011;61048;52.162;4.516;2023-06-14T08:23:22;3.05;;;1.25;;
72904;SDS011;61048;52.162;4.516;2023-06-14T08:25:49;3.67;;;1.15;;
72904;SDS011;61048;52.162;4.516;2023-06-14T08:28:16;2.53;;;1.20;;
72904;SDS011;61048;52.162;4.516;2023-06-14T08:30:43;3.03;;;1.25;;
72904;SDS011;61048;52.162;4.516;2023-06-14T08:33:10;2.65;;;1.25;;
72904;SDS011;61048;52.162;4.516;2023-06-14T08:35:38;4.97;;;1.20;;
72904;SDS011;61048;52.162;4.516;2023-06-14T08:38:05;4.45;;;1.15;;
72904;SDS011;61048;52.162;4.516;2023-06-14T08:40:32;2.92;;;1.00;;
72904;SDS011;61048;52.162;4.516;2023-06-14T08:43:03;4.80;;;1.27;;
72904;SDS011;61048;52.162;4.516;2023-06-14T08:45:30;3.35;;;1.10;;
72904;SDS011;61048;52.162;4.516;2023-06-14T08:47:57;6.47;;;1.17;;
72904;SDS011;61048;52.162;4.516;2023-06-14T08:50:26;5.45;;;1.20;;
72904;SDS011;61048;52.162;4.516;2023-06-14T08:52:56;3.88;;;1.40;;
72904;SDS011;61048;52.162;4.516;2023-06-14T08:55:27;3.08;;;1.30;;
72904;SDS011;61048;52.162;4.516;2023-06-14T08:57:55;3.25;;;1.20;;
72904;SDS011;61048;52.162;4.516;2023-06-14T09:00:23;3.25;;;1.25;;
72904;SDS011;61048;52.162;4.516;2023-06-14T09:02:51;4.53;;;1.40;;
72904;SDS011;61048;52.162;4.516;2023-06-14T09:05:23;2.88;;;1.20;;
72904;SDS011;61048;52.162;4.516;2023-06-14T09:07:50;3.13;;;1.50;;
72904;SDS011;61048;52.162;4.516;2023-06-14T09:10:19;2.65;;;1.17;;
72904;SDS011;61048;52.162;4.516;2023-06-14T09:12:48;3.17;;;1.05;;
72904;SDS011;61048;52.162;4.516;2023-06-14T09:15:15;4.20;;;1.38;;
72904;SDS011;61048;52.162;4.516;2023-06-14T09:17:42;3.47;;;1.40;;
72904;SDS011;61048;52.162;4.516;2023-06-14T09:20:09;5.30;;;1.30;;
72904;SDS011;61048;52.162;4.516;2023-06-14T09:22:38;3.00;;;1.35;;
72904;SDS011;61048;52.162;4.516;2023-06-14T09:25:06;4.75;;;1.52;;
72904;SDS011;61048;52.162;4.516;2023-06-14T09:27:35;3.20;;;1.48;;
72904;SDS011;61048;52.162;4.516;2023-06-14T09:30:05;4.32;;;1.20;;
72904;SDS011;61048;52.162;4.516;2023-06-14T09:32:36;3.20;;;1.45;;
72904;SDS011;61048;52.162;4.516;2023-06-14T09:35:04;4.35;;;1.30;;
72904;SDS011;61048;52.162;4.516;2023-06-14T09:37:32;3.10;;;1.50;;
72904;SDS011;61048;52.162;4.516;2023-06-14T09:39:59;3.30;;;1.50;;
72904;SDS011;61048;52.162;4.516;2023-06-14T09:42:26;3.15;;;0.93;;
72904;SDS011;61048;52.162;4.516;2023-06-14T09:44:56;2.42;;;1.20;;
72904;SDS011;61048;52.162;4.516;2023-06-14T09:47:23;4.68;;;1.60;;
72904;SDS011;61048;52.162;4.516;2023-06-14T09:49:50;3.65;;;1.70;;
72904;SDS011;61048;52.162;4.516;2023-06-14T09:52:20;3.72;;;1.40;;
72904;SDS011;61048;52.162;4.516;2023-06-14T09:54:48;2.63;;;1.10;;
72904;SDS011;61048;52.162;4.516;2023-06-14T09:57:16;2.88;;;1.42;;
72904;SDS011;61048;52.162;4.516;2023-06-14T09:59:46;2.42;;;1.10;;
72904;SDS011;61048;52.162;4.516;2023-06-14T10:02:18;3.83;;;1.23;;
72904;SDS011;61048;52.162;4.516;2023-06-14T10:04:50;2.42;;;1.00;;
72904;SDS011;61048;52.162;4.516;2023-06-14T10:07:23;2.63;;;1.10;;
72904;SDS011;61048;52.162;4.516;2023-06-14T10:09:52;5.00;;;1.35;;
72904;SDS011;61048;52.162;4.516;2023-06-14T10:12:20;4.72;;;1.40;;
72904;SDS011;61048;52.162;4.516;2023-06-14T10:14:48;2.25;;;1.00;;
72904;SDS011;61048;52.162;4.516;2023-06-14T10:17:22;3.38;;;1.27;;
72904;SDS011;61048;52.162;4.516;2023-06-14T10:19:54;2.05;;;1.02;;
72904;SDS011;61048;52.162;4.516;2023-06-14T10:22:30;2.20;;;0.90;;
72904;SDS011;61048;52.162;4.516;2023-06-14T10:25:02;2.38;;;0.95;;
72904;SDS011;61048;52.162;4.516;2023-06-14T10:27:37;2.88;;;1.00;;
72904;SDS011;61048;52.162;4.516;2023-06-14T10:30:05;2.05;;;0.77;;
72904;SDS011;61048;52.162;4.516;2023-06-14T10:32:35;2.47;;;0.85;;
72904;SDS011;61048;52.162;4.516;2023-06-14T10:35:29;2.75;;;1.00;;
72904;SDS011;61048;52.162;4.516;2023-06-14T10:38:03;2.05;;;0.90;;
72904;SDS011;61048;52.162;4.516;2023-06-14T10:40:33;3.45;;;0.80;;
72904;SDS011;61048;52.162;4.516;2023-06-14T10:43:00;3.10;;;0.82;;
72904;SDS011;61048;52.162;4.516;2023-06-14T10:48:44;2.35;;;0.90;;
72904;SDS011;61048;52.162;4.516;2023-06-14T10:51:18;1.63;;;0.68;;
72904;SDS011;61048;52.162;4.516;2023-06-14T10:53:46;2.30;;;0.80;;
72904;SDS011;61048;52.162;4.516;2023-06-14T10:56:24;2.88;;;0.90;;
72904;SDS011;61048;52.162;4.516;2023-06-14T10:58:54;5.43;;;0.85;;
72904;SDS011;61048;52.162;4.516;2023-06-14T11:01:24;3.10;;;0.80;;
72904;SDS011;61048;52.162;4.516;2023-06-14T11:04:10;3.78;;;0.80;;
72904;SDS011;61048;52.162;4.516;2023-06-14T11:06:45;1.75;;;0.57;;
72904;SDS011;61048;52.162;4.516;2023-06-14T11:12:08;2.65;;;0.70;;
72904;SDS011;61048;52.162;4.516;2023-06-14T11:14:36;3.00;;;0.93;;
72904;SDS011;61048;52.162;4.516;2023-06-14T11:17:04;3.05;;;0.77;;
72904;SDS011;61048;52.162;4.516;2023-06-14T11:19:33;3.75;;;0.63;;
72904;SDS011;61048;52.162;4.516;2023-06-14T11:22:00;3.20;;;0.73;;
72904;SDS011;61048;52.162;4.516;2023-06-14T11:24:26;2.28;;;0.50;;
72904;SDS011;61048;52.162;4.516;2023-06-14T11:26:54;1.83;;;0.70;;
72904;SDS011;61048;52.162;4.516;2023-06-14T11:29:22;4.15;;;0.77;;
72904;SDS011;61048;52.162;4.516;2023-06-14T11:31:50;3.05;;;0.88;;
72904;SDS011;61048;52.162;4.516;2023-06-14T11:34:17;2.08;;;0.80;;
72904;SDS011;61048;52.162;4.516;2023-06-14T11:36:46;1.60;;;0.63;;
72904;SDS011;61048;52.162;4.516;2023-06-14T11:39:13;4.60;;;1.10;;
72904;SDS011;61048;52.162;4.516;2023-06-14T11:41:41;1.65;;;0.60;;
72904;SDS011;61048;52.162;4.516;2023-06-14T11:44:09;2.28;;;0.63;;
72904;SDS011;61048;52.162;4.516;2023-06-14T11:46:37;3.35;;;0.60;;
72904;SDS011;61048;52.162;4.516;2023-06-14T11:49:04;2.25;;;0.70;;
72904;SDS011;61048;52.162;4.516;2023-06-14T11:51:34;1.90;;;0.73;;
72904;SDS011;61048;52.162;4.516;2023-06-14T11:54:03;2.70;;;0.70;;
72904;SDS011;61048;52.162;4.516;2023-06-14T11:56:31;2.67;;;0.70;;
72904;SDS011;61048;52.162;4.516;2023-06-14T11:58:58;4.55;;;0.70;;
72904;SDS011;61048;52.162;4.516;2023-06-14T12:01:26;1.40;;;0.55;;
72904;SDS011;61048;52.162;4.516;2023-06-14T12:03:53;4.40;;;0.52;;
72904;SDS011;61048;52.162;4.516;2023-06-14T12:06:26;1.80;;;0.80;;
72904;SDS011;61048;52.162;4.516;2023-06-14T12:08:57;2.50;;;0.60;;
72904;SDS011;61048;52.162;4.516;2023-06-14T12:11:32;3.50;;;0.52;;
72904;SDS011;61048;52.162;4.516;2023-06-14T12:14:00;2.15;;;0.75;;
72904;SDS011;61048;52.162;4.516;2023-06-14T12:16:32;2.15;;;0.82;;
72904;SDS011;61048;52.162;4.516;2023-06-14T12:19:00;1.55;;;0.65;;
72904;SDS011;61048;52.162;4.516;2023-06-14T12:21:36;1.63;;;0.70;;
72904;SDS011;61048;52.162;4.516;2023-06-14T12:24:04;2.60;;;0.80;;
72904;SDS011;61048;52.162;4.516;2023-06-14T12:26:33;3.40;;;0.68;;
72904;SDS011;61048;52.162;4.516;2023-06-14T12:29:04;3.75;;;0.70;;
72904;SDS011;61048;52.162;4.516;2023-06-14T12:31:31;5.47;;;0.75;;
72904;SDS011;61048;52.162;4.516;2023-06-14T12:33:58;3.42;;;0.77;;
72904;SDS011;61048;52.162;4.516;2023-06-14T12:36:25;4.00;;;1.10;;
72904;SDS011;61048;52.162;4.516;2023-06-14T12:38:52;2.33;;;0.50;;
72904;SDS011;61048;52.162;4.516;2023-06-14T12:41:19;1.90;;;0.57;;
72904;SDS011;61048;52.162;4.516;2023-06-14T12:43:48;1.33;;;0.60;;
72904;SDS011;61048;52.162;4.516;2023-06-14T12:46:15;2.15;;;0.65;;
72904;SDS011;61048;52.162;4.516;2023-06-14T12:48:43;3.47;;;0.52;;
72904;SDS011;61048;52.162;4.516;2023-06-14T12:51:09;3.47;;;0.70;;
72904;SDS011;61048;52.162;4.516;2023-06-14T12:53:36;3.88;;;0.65;;
72904;SDS011;61048;52.162;4.516;2023-06-14T12:56:03;2.28;;;0.50;;
72904;SDS011;61048;52.162;4.516;2023-06-14T12:58:30;1.95;;;0.65;;
72904;SDS011;61048;52.162;4.516;2023-06-14T13:00:58;2.55;;;0.57;;
72904;SDS011;61048;52.162;4.516;2023-06-14T13:03:25;2.33;;;0.70;;
72904;SDS011;61048;52.162;4.516;2023-06-14T13:05:52;1.95;;;0.60;;
72904;SDS011;61048;52.162;4.516;2023-06-14T13:08:20;1.60;;;0.60;;
72904;SDS011;61048;52.162;4.516;2023-06-14T13:10:47;2.85;;;0.90;;
72904;SDS011;61048;52.162;4.516;2023-06-14T13:13:14;2.28;;;0.60;;
72904;SDS011;61048;52.162;4.516;2023-06-14T13:15:41;1.55;;;0.60;;
72904;SDS011;61048;52.162;4.516;2023-06-14T13:18:10;2.00;;;0.60;;
72904;SDS011;61048;52.162;4.516;2023-06-14T13:20:38;1.10;;;0.40;;
72904;SDS011;61048;52.162;4.516;2023-06-14T13:23:05;3.55;;;0.57;;
72904;SDS011;61048;52.162;4.516;2023-06-14T13:25:32;1.60;;;0.55;;
72904;SDS011;61048;52.162;4.516;2023-06-14T13:27:59;2.25;;;0.70;;
72904;SDS011;61048;52.162;4.516;2023-06-14T13:30:26;3.03;;;0.88;;
72904;SDS011;61048;52.162;4.516;2023-06-14T13:32:53;3.97;;;0.70;;
72904;SDS011;61048;52.162;4.516;2023-06-14T13:35:22;1.60;;;0.50;;
72904;SDS011;61048;52.162;4.516;2023-06-14T13:37:49;2.17;;;0.47;;
72904;SDS011;61048;52.162;4.516;2023-06-14T13:40:16;2.08;;;0.70;;
72904;SDS011;61048;52.162;4.516;2023-06-14T13:42:43;2.78;;;0.63;;
72904;SDS011;61048;52.162;4.516;2023-06-14T13:45:11;2.97;;;0.73;;
72904;SDS011;61048;52.162;4.516;2023-06-14T13:47:38;1.20;;;0.45;;
72904;SDS011;61048;52.162;4.516;2023-06-14T13:50:06;1.95;;;0.82;;
72904;SDS011;61048;52.162;4.516;2023-06-14T13:52:35;3.13;;;0.77;;
72904;SDS011;61048;52.162;4.516;2023-06-14T13:55:01;3.47;;;0.80;;
72904;SDS011;61048;52.162;4.516;2023-06-14T13:57:30;2.53;;;0.65;;
72904;SDS011;61048;52.162;4.516;2023-06-14T13:59:57;2.35;;;0.50;;
72904;SDS011;61048;52.162;4.516;2023-06-14T14:02:26;1.77;;;0.50;;
72904;SDS011;61048;52.162;4.516;2023-06-14T14:04:53;2.42;;;0.70;;
72904;SDS011;61048;52.162;4.516;2023-06-14T14:07:20;3.35;;;0.50;;
72904;SDS011;61048;52.162;4.516;2023-06-14T14:09:48;2.50;;;0.75;;
72904;SDS011;61048;52.162;4.516;2023-06-14T14:12:16;2.38;;;0.70;;
72904;SDS011;61048;52.162;4.516;2023-06-14T14:14:43;2.03;;;0.82;;
72904;SDS011;61048;52.162;4.516;2023-06-14T14:17:11;3.40;;;1.02;;
72904;SDS011;61048;52.162;4.516;2023-06-14T14:19:38;1.65;;;0.50;;
72904;SDS011;61048;52.162;4.516;2023-06-14T14:22:05;3.47;;;0.80;;
72904;SDS011;61048;52.162;4.516;2023-06-14T14:24:32;2.30;;;0.57;;
72904;SDS011;61048;52.162;4.516;2023-06-14T14:27:00;2.85;;;0.57;;
72904;SDS011;61048;52.162;4.516;2023-06-14T14:29:27;2.40;;;0.60;;
72904;SDS011;61048;52.162;4.516;2023-06-14T14:31:55;2.25;;;0.70;;
72904;SDS011;61048;52.162;4.516;2023-06-14T14:34:22;2.33;;;0.98;;
72904;SDS011;61048;52.162;4.516;2023-06-14T14:36:48;3.08;;;0.60;;
72904;SDS011;61048;52.162;4.516;2023-06-14T14:39:15;2.78;;;0.50;;
72904;SDS011;61048;52.162;4.516;2023-06-14T14:41:42;2.60;;;0.70;;
72904;SDS011;61048;52.162;4.516;2023-06-14T14:44:10;1.15;;;0.45;;
72904;SDS011;61048;52.162;4.516;2023-06-14T14:46:37;2.55;;;0.60;;
72904;SDS011;61048;52.162;4.516;2023-06-14T14:49:04;1.40;;;0.50;;
72904;SDS011;61048;52.162;4.516;2023-06-14T14:51:31;1.70;;;0.52;;
72904;SDS011;61048;52.162;4.516;2023-06-14T14:53:58;1.73;;;0.73;;
72904;SDS011;61048;52.162;4.516;2023-06-14T14:56:25;1.63;;;0.80;;
72904;SDS011;61048;52.162;4.516;2023-06-14T14:58:52;1.50;;;0.50;;
72904;SDS011;61048;52.162;4.516;2023-06-14T15:01:20;3.50;;;0.60;;